Aérodrome :
LOGIN :

S'inscrire | Disclaimer

   EN    FR    IT 

 










Légende :    VFR   VFR Marginal   IFR   IFR Intensif   IFR Très Intensif
Visi : 
Plafond : 
>= 8 km
>= 3000ft
5 à 8 km
1000 à 3000 ft
1500m à 5 km
500 à 1000 ft
800 à 1500m
200 à 500 ft
< 800m
< 200 ft
Symboles :   Orages  Brouillard  Fortes neiges  Fortes précipitations  Vent > 20 kt
SIGMETs :   Divers  Orages  Givrage  Turbulence  Onde Orograph.  Cendres Volcan.






- Altitude de l'aérodrome : 341 ft


EPMO - Modlin

DERNIER METAR :
  • 251700Z 32004KT 280V360 9999 FEW048TCU 14/10 Q1024

METARs EXPIRÉS :
  • 251630Z 34005KT 310V020 9999 FEW047CB 15/09 Q1024
  • 251600Z 34005KT 9999 FEW047CB 13/09 Q1024
  • 251530Z 36006KT 330V040 9999 SCT047CB 14/09 Q1023
  • 251500Z 02007KT 340V050 9999 SCT048TCU 16/08 Q1023
  • 251430Z 35007KT 300V020 9999 SCT048TCU 16/08 Q1023

TAF TAF EPMO
Valide du 25 à 12h jusqu'au 26 à 12h UTC


251130Z 2512/2612 30007KT 9999 SCT040
TEMPO 2512/2520 SHRA BKN025CB
PROB30
TEMPO 2512/2517 36015G30KT 3000 TSRA BKN014CB
PROB40 2600/2605 4000 BR
BECMG 2603/2606 36010KT



MET'MAP, la Météo Aéronautique d'un coup d'oeil ! - Copyright ORBIFLY Décembre 2007 - Disclaimer

ORBIFLY MET'MAP TEAM :

Programmation & Développement : Alexandra Zaïnal
Sur une idée originale de : Baudouin d'Aumeries
Assistance à la programmation : Marc-Olivier Méhu
Soutien technique & logistique : Manuel Goepfert

Contact : metmap@orbifly.com




SOURCES & CREDITS :

   NOAA